createdAt,value
2022-11-28T00:00:57.160Z,15.05
2022-11-28T00:03:30.148Z,15.63
2022-11-28T00:06:08.567Z,15.78
2022-11-28T00:08:41.947Z,15.90
2022-11-28T00:11:17.714Z,15.15
2022-11-28T00:13:50.881Z,15.03
2022-11-28T00:16:24.643Z,14.28
2022-11-28T00:18:59.595Z,14.73
2022-11-28T00:21:33.073Z,13.70
2022-11-28T00:24:08.331Z,17.12
2022-11-28T00:26:43.236Z,17.00
2022-11-28T00:29:15.954Z,17.35
2022-11-28T00:31:49.493Z,17.07
2022-11-28T00:34:22.319Z,17.65
2022-11-28T00:36:55.555Z,16.30
2022-11-28T00:39:28.291Z,16.82
2022-11-28T00:42:00.926Z,18.50
2022-11-28T00:44:33.874Z,18.25
2022-11-28T00:47:06.692Z,18.07
2022-11-28T00:49:39.523Z,15.80
2022-11-28T00:52:12.378Z,16.62
2022-11-28T00:54:45.127Z,16.00
2022-11-28T00:57:17.730Z,15.43
2022-11-28T00:59:50.597Z,16.70
2022-11-28T01:02:23.822Z,15.43
2022-11-28T01:04:56.545Z,15.23
2022-11-28T01:07:29.342Z,16.80
2022-11-28T01:10:02.114Z,14.45
2022-11-28T01:12:35.505Z,15.23
2022-11-28T01:15:12.310Z,16.50
2022-11-28T01:17:45.456Z,17.48
2022-11-28T01:20:18.540Z,16.52
2022-11-28T01:22:51.689Z,14.85
2022-11-28T01:25:24.665Z,14.50
2022-11-28T01:27:57.255Z,15.75
2022-11-28T01:30:31.047Z,15.53
2022-11-28T01:33:03.870Z,16.00
2022-11-28T01:35:36.772Z,15.48
2022-11-28T01:38:09.614Z,14.03
2022-11-28T01:40:47.264Z,14.98
2022-11-28T01:43:20.257Z,13.80
2022-11-28T01:45:53.369Z,12.57
2022-11-28T01:48:35.726Z,14.05
2022-11-28T01:51:11.001Z,16.00
2022-11-28T01:53:46.115Z,16.37
2022-11-28T01:56:23.756Z,14.73
2022-11-28T01:59:01.229Z,14.00
2022-11-28T02:01:34.330Z,13.00
2022-11-28T02:04:07.458Z,13.38
2022-11-28T02:06:40.344Z,15.65
2022-11-28T02:09:15.693Z,15.63
2022-11-28T02:12:14.418Z,15.72
2022-11-28T02:15:09.783Z,13.80
2022-11-28T02:18:08.714Z,14.35
2022-11-28T02:20:48.911Z,14.63
2022-11-28T02:23:28.915Z,14.70
2022-11-28T02:26:43.691Z,15.75
2022-11-28T02:29:32.971Z,14.78
2022-11-28T02:32:28.159Z,14.35
2022-11-28T02:35:26.775Z,13.68
2022-11-28T02:38:10.314Z,15.18
2022-11-28T02:41:06.204Z,16.62
2022-11-28T02:44:04.593Z,15.72
2022-11-28T02:47:02.856Z,15.53
2022-11-28T02:49:46.397Z,13.98
2022-11-28T02:52:25.954Z,12.37
2022-11-28T02:54:59.305Z,12.10
2022-11-28T02:57:40.630Z,13.68
2022-11-28T03:00:30.301Z,14.58
2022-11-28T03:03:20.659Z,13.60
2022-11-28T03:06:20.812Z,14.13
2022-11-28T03:09:20.712Z,13.53
2022-11-28T03:12:03.880Z,13.83
2022-11-28T03:15:05.681Z,14.70
2022-11-28T03:17:56.638Z,14.87
2022-11-28T03:20:48.550Z,14.30
2022-11-28T03:23:43.733Z,12.70
2022-11-28T03:26:38.475Z,13.65
2022-11-28T03:29:30.459Z,13.43
2022-11-28T03:32:09.677Z,14.15
2022-11-28T03:34:47.489Z,15.68
2022-11-28T03:37:27.443Z,14.20
2022-11-28T03:40:03.973Z,13.00
2022-11-28T03:42:42.825Z,14.55
2022-11-28T03:45:25.873Z,13.58
2022-11-28T03:48:08.104Z,13.93
2022-11-28T03:50:57.065Z,14.98
2022-11-28T03:53:49.664Z,12.85
2022-11-28T03:56:51.670Z,13.35
2022-11-28T03:59:32.195Z,12.88
2022-11-28T04:02:29.158Z,11.68
2022-11-28T04:05:12.881Z,13.18
2022-11-28T04:08:15.222Z,14.17
2022-11-28T04:11:22.027Z,12.68
2022-11-28T04:14:11.692Z,13.32
2022-11-28T04:16:54.067Z,13.05
2022-11-28T04:19:37.191Z,14.03
2022-11-28T04:22:18.120Z,14.98
2022-11-28T04:24:58.246Z,17.02
2022-11-28T04:27:37.407Z,14.80
2022-11-28T04:30:11.956Z,13.85
2022-11-28T04:32:51.202Z,14.33
2022-11-28T04:35:35.306Z,12.95
2022-11-28T04:38:10.474Z,13.90
2022-11-28T04:40:53.869Z,15.63
2022-11-28T04:43:31.628Z,16.33
2022-11-28T04:46:11.990Z,14.18
2022-11-28T04:48:44.790Z,10.80
2022-11-28T04:51:30.713Z,11.15
2022-11-28T04:54:20.106Z,10.60
2022-11-28T04:57:00.478Z,11.85
2022-11-28T04:59:34.281Z,12.55
2022-11-28T05:02:07.727Z,12.20
2022-11-28T05:04:41.345Z,12.40
2022-11-28T05:07:14.740Z,13.08
2022-11-28T05:09:47.562Z,12.90
2022-11-28T05:12:20.757Z,14.35
2022-11-28T05:14:53.917Z,13.50
2022-11-28T05:17:26.625Z,14.60
2022-11-28T05:19:59.436Z,15.85
2022-11-28T05:22:32.207Z,13.85
2022-11-28T05:25:05.139Z,12.28
2022-11-28T05:27:38.518Z,14.07
2022-11-28T05:30:13.261Z,13.40
2022-11-28T05:32:46.097Z,13.25
2022-11-28T05:35:18.943Z,12.82
2022-11-28T05:37:52.377Z,11.93
2022-11-28T05:40:25.456Z,11.37
2022-11-28T05:42:58.023Z,10.98
2022-11-28T05:45:30.741Z,10.03
2022-11-28T05:48:03.296Z,11.10
2022-11-28T05:50:39.900Z,10.75
2022-11-28T05:53:11.072Z,10.55
2022-11-28T05:55:43.915Z,9.78
2022-11-28T05:58:16.642Z,11.08
2022-11-28T06:00:49.700Z,10.28
2022-11-28T06:03:22.300Z,10.35
2022-11-28T06:05:55.388Z,11.55
2022-11-28T06:08:28.179Z,9.88
2022-11-28T06:11:01.410Z,9.05
2022-11-28T06:13:34.222Z,8.30
2022-11-28T06:16:16.732Z,8.70
2022-11-28T06:18:51.332Z,9.20
2022-11-28T06:21:24.857Z,9.35
2022-11-28T06:23:59.551Z,10.10
2022-11-28T06:26:32.494Z,12.63
2022-11-28T06:29:05.910Z,12.80
2022-11-28T06:31:38.733Z,10.55
2022-11-28T06:34:14.063Z,10.35
2022-11-28T06:36:47.066Z,12.53
2022-11-28T06:39:20.048Z,14.80
2022-11-28T06:41:53.128Z,15.20
2022-11-28T06:44:26.008Z,14.55
2022-11-28T06:46:58.967Z,38.05
2022-11-28T06:49:31.869Z,16.55
2022-11-28T06:52:04.942Z,15.88
2022-11-28T06:54:38.026Z,18.27
2022-11-28T06:57:11.041Z,18.07
2022-11-28T06:59:44.348Z,17.87
2022-11-28T07:02:17.351Z,18.45
2022-11-28T07:04:50.085Z,17.75
2022-11-28T07:07:22.908Z,18.30
2022-11-28T07:09:55.525Z,17.62
2022-11-28T07:12:28.502Z,21.00
2022-11-28T07:15:01.223Z,20.92
2022-11-28T07:17:35.289Z,21.33
2022-11-28T07:20:09.512Z,22.52
2022-11-28T07:22:43.939Z,20.65
2022-11-28T07:25:17.526Z,18.82
2022-11-28T07:27:50.342Z,20.77
2022-11-28T07:30:23.651Z,22.95
2022-11-28T07:32:56.415Z,23.60
2022-11-28T07:35:29.322Z,22.65
2022-11-28T07:38:02.541Z,20.23
2022-11-28T07:40:35.418Z,19.92
2022-11-28T07:43:08.346Z,18.30
2022-11-28T07:45:59.943Z,22.20
2022-11-28T07:48:16.499Z,21.62
2022-11-28T07:50:49.228Z,21.42
2022-11-28T07:53:22.511Z,18.52
2022-11-28T07:55:55.360Z,19.10
2022-11-28T07:58:28.352Z,20.65
2022-11-28T08:01:01.435Z,21.37
2022-11-28T08:03:34.414Z,25.00
2022-11-28T08:06:08.834Z,30.75
2022-11-28T08:08:42.099Z,25.23
2022-11-28T08:11:17.361Z,23.55
2022-11-28T08:13:53.794Z,20.88
2022-11-28T08:16:27.598Z,15.53
2022-11-28T08:19:02.856Z,19.92
2022-11-28T08:21:36.034Z,22.52
2022-11-28T08:24:09.425Z,22.55
2022-11-28T08:26:42.530Z,21.42
2022-11-28T08:29:15.387Z,19.17
2022-11-28T08:31:48.741Z,18.70
2022-11-28T08:34:21.676Z,21.00
2022-11-28T08:36:54.435Z,24.20
2022-11-28T08:39:27.585Z,22.70
2022-11-28T08:42:00.446Z,23.47
2022-11-28T08:44:34.292Z,23.80
2022-11-28T08:47:07.034Z,21.70
2022-11-28T08:49:40.168Z,21.73
2022-11-28T08:52:13.179Z,17.32
2022-11-28T08:54:46.510Z,19.60
2022-11-28T08:57:19.169Z,20.37
2022-11-28T08:59:52.293Z,19.73
2022-11-28T09:02:26.220Z,19.92
2022-11-28T09:04:59.680Z,19.48
2022-11-28T09:07:32.553Z,17.52
2022-11-28T09:10:06.128Z,17.62
2022-11-28T09:12:39.054Z,18.90
2022-11-28T09:15:12.199Z,24.25
2022-11-28T09:17:45.760Z,25.77
2022-11-28T09:20:18.603Z,23.62
2022-11-28T09:22:51.276Z,24.18
2022-11-28T09:25:24.129Z,21.55
2022-11-28T09:27:56.981Z,22.85
2022-11-28T09:30:30.175Z,23.73
2022-11-28T09:33:03.071Z,26.63
2022-11-28T09:35:37.577Z,33.13
2022-11-28T09:40:44.891Z,24.92
2022-11-28T09:43:39.191Z,52.38
2022-11-28T09:46:16.762Z,38.13
2022-11-28T09:48:53.459Z,41.85
2022-11-28T09:51:45.959Z,40.80
2022-11-28T09:54:41.428Z,48.52
2022-11-28T09:57:18.959Z,45.88
2022-11-28T09:59:51.925Z,43.80
2022-11-28T10:02:41.318Z,21.00
2022-11-28T10:05:53.290Z,19.45
2022-11-28T10:08:45.563Z,27.48
2022-11-28T10:11:40.784Z,21.97
2022-11-28T10:15:01.418Z,19.67
2022-11-28T10:17:59.872Z,17.80
2022-11-28T10:20:45.943Z,16.87
2022-11-28T10:23:43.894Z,20.82
2022-11-28T10:26:33.762Z,20.10
2022-11-28T10:29:23.300Z,20.02
2022-11-28T10:32:06.216Z,18.95
2022-11-28T10:35:06.919Z,16.50
2022-11-28T10:37:41.437Z,19.17
2022-11-28T10:40:40.780Z,18.17
2022-11-28T10:43:38.211Z,20.75
2022-11-28T10:46:45.883Z,20.70
2022-11-28T10:49:53.607Z,17.42
2022-11-28T10:52:46.122Z,24.52
2022-11-28T10:55:46.906Z,22.40
2022-11-28T10:58:36.467Z,48.48
2022-11-28T11:01:09.309Z,30.27
2022-11-28T11:03:42.724Z,29.82
2022-11-28T11:06:15.445Z,21.43
2022-11-28T11:08:49.525Z,19.55
2022-11-28T11:11:38.198Z,41.02
2022-11-28T11:14:12.810Z,23.30
2022-11-28T11:16:55.737Z,23.62
2022-11-28T11:19:34.938Z,25.80
2022-11-28T11:22:32.321Z,31.85
2022-11-28T11:25:20.584Z,26.05
2022-11-28T11:28:01.249Z,32.75
2022-11-28T11:30:40.248Z,26.25
2022-11-28T11:33:18.447Z,29.98
2022-11-28T11:35:51.997Z,27.05
2022-11-28T11:38:36.185Z,28.00
2022-11-28T11:41:30.951Z,18.30
2022-11-28T11:44:35.459Z,19.48
2022-11-28T11:47:11.062Z,21.05
2022-11-28T11:49:49.960Z,20.40
2022-11-28T11:52:28.300Z,20.60
2022-11-28T11:55:15.081Z,21.40
2022-11-28T11:57:53.565Z,19.87
2022-11-28T12:00:39.847Z,19.12
2022-11-28T12:03:44.674Z,17.60
2022-11-28T12:06:25.119Z,18.70
2022-11-28T12:09:35.511Z,28.45
2022-11-28T12:12:25.840Z,28.27
2022-11-28T12:14:58.798Z,30.75
2022-11-28T12:20:45.950Z,28.73
2022-11-28T12:26:36.658Z,33.50
2022-11-28T12:29:30.782Z,26.62
2022-11-28T12:32:32.212Z,20.77
2022-11-28T12:35:43.739Z,23.42
2022-11-28T12:38:39.651Z,20.65
2022-11-28T12:42:05.672Z,31.33
2022-11-28T12:45:16.264Z,50.75
2022-11-28T12:48:05.761Z,65.37
2022-11-28T12:50:41.850Z,30.35
2022-11-28T12:53:34.488Z,23.30
2022-11-28T12:56:26.713Z,24.00
2022-11-28T12:59:26.865Z,24.63
2022-11-28T13:02:50.521Z,25.50
2022-11-28T13:05:40.798Z,23.87
2022-11-28T13:08:21.764Z,24.43
2022-11-28T13:11:18.344Z,25.37
2022-11-28T13:13:55.348Z,25.77
2022-11-28T13:16:47.027Z,31.23
2022-11-28T13:20:02.402Z,30.82
2022-11-28T13:25:54.744Z,29.10
2022-11-28T13:29:08.653Z,38.40
2022-11-28T13:32:02.310Z,46.10
2022-11-28T13:34:35.983Z,29.65
2022-11-28T13:40:31.387Z,27.45
2022-11-28T13:43:24.999Z,27.02
2022-11-28T13:45:58.936Z,24.05
2022-11-28T13:51:31.006Z,20.12
2022-11-28T13:54:22.685Z,27.60
2022-11-28T13:57:27.814Z,35.15
2022-11-28T14:00:25.650Z,36.60
2022-11-28T14:03:00.463Z,34.60
2022-11-28T14:05:41.648Z,29.65
2022-11-28T14:08:31.437Z,40.85
2022-11-28T14:11:27.719Z,28.40
2022-11-28T14:14:39.815Z,20.25
2022-11-28T14:17:46.895Z,22.30
2022-11-28T14:20:39.309Z,22.95
2022-11-28T14:23:39.562Z,21.45
2022-11-28T14:26:38.302Z,29.42
2022-11-28T14:29:26.230Z,20.52
2022-11-28T14:32:29.699Z,34.00
2022-11-28T14:34:52.521Z,33.78
2022-11-28T14:37:37.702Z,27.77
2022-11-28T14:40:15.349Z,22.45
2022-11-28T14:43:03.805Z,21.45
2022-11-28T14:45:44.778Z,23.75
2022-11-28T14:48:30.828Z,24.75
2022-11-28T14:51:03.793Z,27.50
2022-11-28T14:53:40.927Z,29.32
2022-11-28T14:56:23.482Z,26.37
2022-11-28T14:58:59.918Z,26.42
2022-11-28T15:01:59.309Z,21.42
2022-11-28T15:04:44.392Z,23.40
2022-11-28T15:08:07.016Z,20.88
2022-11-28T15:10:59.884Z,24.75
2022-11-28T15:13:46.357Z,25.77
2022-11-28T15:16:20.540Z,25.88
2022-11-28T15:18:58.382Z,26.45
2022-11-28T15:21:34.661Z,28.80
2022-11-28T15:24:22.260Z,31.55
2022-11-28T15:27:11.676Z,29.52
2022-11-28T15:29:44.722Z,26.60
2022-11-28T15:32:18.877Z,23.38
2022-11-28T15:35:01.394Z,22.70
2022-11-28T15:37:36.413Z,23.92
2022-11-28T15:40:13.404Z,24.30
2022-11-28T15:42:51.580Z,24.63
2022-11-28T15:45:35.676Z,23.05
2022-11-28T15:48:10.201Z,23.22
2022-11-28T15:50:47.677Z,18.40
2022-11-28T15:53:23.118Z,21.52
2022-11-28T15:56:16.432Z,24.00
2022-11-28T15:58:51.613Z,21.45
2022-11-28T16:01:29.063Z,19.42
2022-11-28T16:04:14.109Z,19.75
2022-11-28T16:06:53.072Z,17.98
2022-11-28T16:09:38.833Z,21.30
2022-11-28T16:12:14.325Z,22.37
2022-11-28T16:14:48.536Z,25.77
2022-11-28T16:17:25.227Z,24.67
2022-11-28T16:19:59.466Z,21.33
2022-11-28T16:22:37.612Z,24.12
2022-11-28T16:25:23.940Z,23.65
2022-11-28T16:27:57.806Z,23.42
2022-11-28T16:30:37.877Z,21.25
2022-11-28T16:33:41.363Z,17.55
2022-11-28T16:36:20.784Z,21.48
2022-11-28T16:38:57.968Z,47.35
2022-11-28T16:41:32.382Z,34.03
2022-11-28T16:44:14.968Z,25.32
2022-11-28T16:46:59.800Z,21.37
2022-11-28T16:49:44.321Z,21.80
2022-11-28T16:52:28.327Z,22.77
2022-11-28T16:55:01.255Z,20.62
2022-11-28T16:57:48.112Z,20.55
2022-11-28T17:00:20.835Z,19.87
2022-11-28T17:02:54.674Z,29.18
2022-11-28T17:05:27.414Z,26.37
2022-11-28T17:08:02.081Z,21.95
2022-11-28T17:10:34.837Z,18.32
2022-11-28T17:13:07.924Z,21.50
2022-11-28T17:15:40.826Z,23.22
2022-11-28T17:18:13.459Z,28.30
2022-11-28T17:20:46.218Z,22.22
2022-11-28T17:23:27.815Z,23.40
2022-11-28T17:26:01.050Z,23.10
2022-11-28T17:28:33.938Z,21.77
2022-11-28T17:31:06.840Z,21.52
2022-11-28T17:33:44.448Z,26.10
2022-11-28T17:36:14.640Z,18.87
2022-11-28T17:38:47.315Z,16.05
2022-11-28T17:41:19.969Z,16.02
2022-11-28T17:43:53.265Z,12.68
2022-11-28T17:46:26.244Z,14.07
2022-11-28T17:48:59.820Z,16.97
2022-11-28T17:51:32.425Z,17.67
2022-11-28T17:54:05.909Z,14.68
2022-11-28T17:56:38.743Z,13.03
2022-11-28T17:59:16.582Z,12.75
2022-11-28T18:01:50.174Z,15.25
2022-11-28T18:04:24.833Z,15.83
2022-11-28T18:06:57.414Z,14.55
2022-11-28T18:09:30.599Z,11.73
2022-11-28T18:12:03.387Z,12.18
2022-11-28T18:14:39.779Z,10.32
2022-11-28T18:17:12.368Z,10.93
2022-11-28T18:19:46.606Z,11.00
2022-11-28T18:22:19.435Z,11.05
2022-11-28T18:24:52.619Z,11.07
2022-11-28T18:27:25.528Z,11.65
2022-11-28T18:29:59.778Z,13.75
2022-11-28T18:32:34.161Z,12.98
2022-11-28T18:35:08.124Z,14.23
2022-11-28T18:37:42.260Z,11.12
2022-11-28T18:40:15.237Z,13.62
2022-11-28T18:42:48.860Z,14.47
2022-11-28T18:45:21.800Z,15.40
2022-11-28T18:47:59.904Z,9.73
2022-11-28T18:50:29.247Z,11.35
2022-11-28T18:53:03.169Z,12.30
2022-11-28T18:55:35.865Z,11.88
2022-11-28T18:58:08.526Z,9.95
2022-11-28T19:00:41.275Z,9.63
2022-11-28T19:03:13.932Z,12.03
2022-11-28T19:05:46.807Z,13.43
2022-11-28T19:08:19.828Z,11.08
2022-11-28T19:10:52.763Z,9.43
2022-11-28T19:13:25.463Z,8.30
2022-11-28T19:15:58.237Z,10.20
2022-11-28T19:18:30.984Z,11.45
2022-11-28T19:21:10.335Z,8.25
2022-11-28T19:23:44.642Z,9.10
2022-11-28T19:26:21.001Z,7.85
2022-11-28T19:28:54.464Z,8.80
2022-11-28T19:31:31.044Z,7.50
2022-11-28T19:34:07.309Z,7.45
2022-11-28T19:36:43.187Z,9.68
2022-11-28T19:39:22.359Z,12.33
2022-11-28T19:41:57.240Z,10.90
2022-11-28T19:44:30.824Z,28.05
2022-11-28T19:47:03.697Z,29.02
2022-11-28T19:49:38.516Z,21.52
2022-11-28T19:52:11.400Z,8.58
2022-11-28T19:54:45.741Z,8.63
2022-11-28T19:57:20.523Z,9.90
2022-11-28T19:59:53.337Z,11.22
2022-11-28T20:02:26.549Z,16.67
2022-11-28T20:04:59.579Z,8.05
2022-11-28T20:07:33.054Z,7.37
2022-11-28T20:10:07.131Z,8.45
2022-11-28T20:12:40.470Z,9.60
2022-11-28T20:15:18.024Z,6.17
2022-11-28T20:17:48.184Z,6.50
2022-11-28T20:20:21.592Z,11.63
2022-11-28T20:22:55.973Z,8.28
2022-11-28T20:25:29.251Z,6.28
2022-11-28T20:28:02.271Z,5.97
2022-11-28T20:30:37.466Z,6.00
2022-11-28T20:33:10.175Z,5.90
2022-11-28T20:35:42.938Z,6.90
2022-11-28T20:38:16.529Z,5.95
2022-11-28T20:40:49.170Z,7.65
2022-11-28T20:43:21.781Z,5.28
2022-11-28T20:45:55.889Z,5.75
2022-11-28T20:51:02.078Z,6.00
2022-11-28T20:53:36.910Z,6.17
2022-11-28T20:56:16.585Z,6.70
2022-11-28T20:58:49.484Z,6.10
2022-11-28T21:01:25.687Z,8.53
2022-11-28T21:03:58.780Z,26.70
2022-11-28T21:06:32.077Z,8.30
2022-11-28T21:09:08.288Z,6.00
2022-11-28T21:11:56.748Z,5.75
2022-11-28T21:14:16.462Z,5.55
2022-11-28T21:16:49.265Z,5.95
2022-11-28T21:19:22.332Z,6.60
2022-11-28T21:21:55.098Z,5.00
2022-11-28T21:24:28.667Z,5.10
2022-11-28T21:27:01.501Z,6.37
2022-11-28T21:29:34.549Z,7.58
2022-11-28T21:32:08.062Z,5.70
2022-11-28T21:37:13.169Z,4.78
2022-11-28T21:39:46.345Z,4.22
2022-11-28T21:42:20.888Z,6.53
2022-11-28T21:44:53.765Z,14.03
2022-11-28T21:47:26.503Z,12.80
2022-11-28T21:49:59.748Z,6.13
2022-11-28T21:52:34.000Z,6.03
2022-11-28T21:55:07.758Z,4.03
2022-11-28T22:00:31.623Z,4.78
2022-11-28T22:02:51.335Z,4.90
2022-11-28T22:05:24.738Z,4.83
2022-11-28T22:07:58.011Z,4.53
2022-11-28T22:10:31.670Z,5.25
2022-11-28T22:13:04.494Z,3.77
2022-11-28T22:15:43.494Z,4.25
2022-11-28T22:18:16.229Z,4.35
2022-11-28T22:20:52.834Z,4.90
2022-11-28T22:23:23.846Z,4.45
2022-11-28T22:25:56.962Z,5.37
2022-11-28T22:28:30.037Z,11.68
2022-11-28T22:31:19.581Z,11.18
2022-11-28T22:33:52.585Z,7.85
2022-11-28T22:36:26.499Z,4.95
2022-11-28T22:39:00.191Z,5.35
2022-11-28T22:41:34.036Z,5.78
2022-11-28T22:44:07.548Z,4.33
2022-11-28T22:46:41.098Z,4.73
2022-11-28T22:49:15.210Z,4.12
2022-11-28T22:51:48.074Z,3.65
2022-11-28T22:54:21.264Z,4.72
2022-11-28T22:56:55.972Z,5.12
2022-11-28T22:59:30.453Z,4.60
2022-11-28T23:02:04.563Z,4.20
2022-11-28T23:04:38.128Z,3.73
2022-11-28T23:07:11.717Z,4.35
2022-11-28T23:09:44.611Z,3.70
2022-11-28T23:12:18.270Z,5.17
2022-11-28T23:14:51.960Z,7.57
2022-11-28T23:17:24.670Z,8.80
2022-11-28T23:19:57.487Z,4.70
2022-11-28T23:22:30.900Z,3.55
2022-11-28T23:25:03.819Z,3.60
2022-11-28T23:27:36.817Z,3.72
2022-11-28T23:30:10.720Z,3.87
2022-11-28T23:32:43.887Z,3.65
2022-11-28T23:35:17.052Z,3.92
2022-11-28T23:40:22.796Z,3.45
2022-11-28T23:42:55.475Z,3.40
2022-11-28T23:45:28.129Z,3.67
2022-11-28T23:48:00.932Z,3.60
2022-11-28T23:50:35.453Z,3.12
2022-11-28T23:53:08.116Z,3.52
2022-11-28T23:55:40.966Z,3.25
2022-11-28T23:58:13.716Z,3.75
